createdAt,value
2018-02-04T00:00:40.977Z,84.40
2018-02-04T00:03:08.396Z,83.80
2018-02-04T00:05:35.934Z,83.30
2018-02-04T00:08:03.359Z,82.80
2018-02-04T00:10:30.840Z,82.50
2018-02-04T00:12:58.607Z,82.20
2018-02-04T00:15:26.034Z,81.70
2018-02-04T00:17:53.516Z,81.50
2018-02-04T00:20:20.974Z,81.60
2018-02-04T00:22:48.402Z,81.80
2018-02-04T00:25:16.620Z,81.70
2018-02-04T00:27:44.293Z,81.60
2018-02-04T00:30:11.732Z,81.70
2018-02-04T00:32:39.156Z,81.70
2018-02-04T00:35:06.849Z,81.50
2018-02-04T00:37:34.277Z,81.20
2018-02-04T00:40:01.760Z,81.20
2018-02-04T00:42:29.194Z,81.30
2018-02-04T00:44:56.615Z,81.20
2018-02-04T00:47:24.132Z,81.10
2018-02-04T00:49:51.568Z,81.10
2018-02-04T00:52:19.000Z,81.40
2018-02-04T00:54:47.220Z,81.50
2018-02-04T00:57:14.688Z,81.50
2018-02-04T00:59:42.114Z,81.50
2018-02-04T01:02:09.592Z,81.70
2018-02-04T01:04:37.055Z,81.50
2018-02-04T01:07:04.503Z,81.60
2018-02-04T01:09:31.928Z,81.60
2018-02-04T01:12:00.131Z,81.70
2018-02-04T01:14:27.602Z,81.60
2018-02-04T01:16:55.060Z,81.70
2018-02-04T01:19:22.819Z,81.90
2018-02-04T01:21:50.236Z,82.00
2018-02-04T01:24:18.424Z,82.10
2018-02-04T01:26:45.862Z,82.10
2018-02-04T01:29:14.083Z,82.30
2018-02-04T01:31:41.526Z,82.20
2018-02-04T01:34:08.960Z,82.30
2018-02-04T01:36:36.380Z,82.20
2018-02-04T01:39:03.808Z,82.30
2018-02-04T01:41:31.483Z,82.30
2018-02-04T01:43:58.915Z,82.30
2018-02-04T01:46:26.381Z,82.40
2018-02-04T01:48:53.839Z,82.50
2018-02-04T01:51:21.248Z,82.60
2018-02-04T01:53:49.463Z,82.80
2018-02-04T01:56:16.903Z,82.70
2018-02-04T01:58:44.378Z,82.90
2018-02-04T02:01:11.783Z,82.90
2018-02-04T02:03:40.012Z,82.90
2018-02-04T02:06:07.473Z,82.90
2018-02-04T02:08:34.954Z,82.80
2018-02-04T02:11:02.620Z,82.80
2018-02-04T02:13:30.144Z,82.90
2018-02-04T02:15:57.556Z,82.90
2018-02-04T02:18:25.757Z,83.80
2018-02-04T02:20:53.182Z,83.00
2018-02-04T02:23:20.599Z,83.10
2018-02-04T02:25:48.355Z,82.60
2018-02-04T02:28:15.839Z,83.20
2018-02-04T02:30:43.264Z,83.20
2018-02-04T02:33:10.698Z,83.30
2018-02-04T02:35:38.132Z,83.40
2018-02-04T02:38:05.552Z,83.40
2018-02-04T02:40:32.991Z,83.40
2018-02-04T02:43:00.411Z,83.40
2018-02-04T02:45:28.603Z,83.30
2018-02-04T02:47:56.087Z,83.30
2018-02-04T02:50:23.513Z,83.40
2018-02-04T02:52:50.993Z,83.40
2018-02-04T02:55:18.420Z,83.40
2018-02-04T02:57:46.610Z,83.30
2018-02-04T03:00:14.040Z,83.30
2018-02-04T03:02:42.244Z,83.20
2018-02-04T03:05:09.663Z,83.20
2018-02-04T03:07:37.172Z,83.20
2018-02-04T03:10:04.579Z,83.20
2018-02-04T03:12:31.999Z,83.20
2018-02-04T03:14:59.451Z,83.30
2018-02-04T03:17:27.216Z,83.10
2018-02-04T03:19:54.697Z,83.10
2018-02-04T03:22:22.234Z,83.00
2018-02-04T03:24:49.680Z,83.10
2018-02-04T03:27:17.096Z,83.10
2018-02-04T03:29:45.316Z,83.30
2018-02-04T03:32:12.776Z,83.20
2018-02-04T03:34:40.232Z,83.30
2018-02-04T03:37:07.688Z,83.40
2018-02-04T03:39:35.452Z,83.40
2018-02-04T03:42:02.881Z,83.50
2018-02-04T03:44:30.307Z,83.50
2018-02-04T03:46:57.823Z,83.60
2018-02-04T03:49:25.253Z,83.70
2018-02-04T03:51:53.452Z,83.70
2018-02-04T03:54:20.921Z,83.70
2018-02-04T03:56:48.344Z,83.80
2018-02-04T03:59:15.824Z,83.80
2018-02-04T04:01:43.260Z,83.80
2018-02-04T04:04:10.691Z,83.90
2018-02-04T04:06:38.890Z,84.10
2018-02-04T04:09:06.583Z,84.00
2018-02-04T04:11:34.027Z,84.10
2018-02-04T04:14:01.448Z,84.10
2018-02-04T04:16:29.648Z,84.20
2018-02-04T04:18:57.076Z,84.10
2018-02-04T04:21:25.275Z,84.30
2018-02-04T04:23:52.716Z,84.20
2018-02-04T04:26:20.921Z,84.40
2018-02-04T04:28:48.398Z,84.40
2018-02-04T04:31:16.152Z,84.50
2018-02-04T04:33:43.607Z,84.60
2018-02-04T04:36:11.040Z,84.70
2018-02-04T04:38:38.522Z,84.70
2018-02-04T04:41:05.979Z,84.70
2018-02-04T04:43:33.412Z,84.90
2018-02-04T04:46:01.138Z,85.00
2018-02-04T04:48:28.560Z,85.00
2018-02-04T04:50:55.984Z,85.10
2018-02-04T04:53:23.468Z,85.10
2018-02-04T04:55:50.922Z,85.20
2018-02-04T04:58:18.347Z,85.30
2018-02-04T05:00:46.866Z,85.50
2018-02-04T05:03:14.295Z,85.40
2018-02-04T05:05:41.721Z,85.50
2018-02-04T05:08:09.236Z,85.60
2018-02-04T05:10:36.665Z,85.60
2018-02-04T05:13:04.148Z,85.80
2018-02-04T05:15:31.926Z,85.90
2018-02-04T05:17:59.376Z,86.00
2018-02-04T05:20:26.834Z,86.00
2018-02-04T05:22:54.284Z,86.20
2018-02-04T05:25:21.705Z,86.20
2018-02-04T05:27:49.911Z,86.40
2018-02-04T05:30:17.340Z,86.40
2018-02-04T05:32:45.528Z,86.50
2018-02-04T05:35:12.950Z,86.50
2018-02-04T05:37:40.664Z,86.50
2018-02-04T05:40:08.124Z,87.00
2018-02-04T05:42:35.608Z,86.60
2018-02-04T05:45:03.344Z,86.70
2018-02-04T05:47:30.768Z,86.70
2018-02-04T05:49:58.959Z,87.00
2018-02-04T05:52:26.435Z,86.80
2018-02-04T05:54:53.869Z,87.00
2018-02-04T05:57:21.290Z,87.10
2018-02-04T05:59:49.009Z,87.10
2018-02-04T06:02:16.613Z,87.20
2018-02-04T06:04:44.040Z,87.20
2018-02-04T06:07:11.478Z,87.30
2018-02-04T06:09:38.899Z,87.30
2018-02-04T06:12:07.092Z,87.50
2018-02-04T06:14:34.589Z,87.30
2018-02-04T06:17:02.052Z,87.50
2018-02-04T06:19:29.585Z,87.50
2018-02-04T06:21:57.228Z,87.50
2018-02-04T06:24:24.652Z,87.50
2018-02-04T06:26:52.079Z,87.50
2018-02-04T06:29:19.515Z,87.60
2018-02-04T06:31:46.940Z,87.50
2018-02-04T06:34:15.129Z,87.50
2018-02-04T06:36:42.811Z,87.50
2018-02-04T06:39:10.271Z,87.40
2018-02-04T06:41:37.688Z,87.40
2018-02-04T06:44:05.892Z,87.30
2018-02-04T06:46:33.360Z,87.30
2018-02-04T06:49:00.811Z,87.10
2018-02-04T06:51:28.270Z,87.00
2018-02-04T06:53:55.732Z,86.90
2018-02-04T06:56:23.187Z,86.80
2018-02-04T06:58:50.651Z,86.70
2018-02-04T07:01:18.099Z,86.70
2018-02-04T07:03:45.523Z,86.80
2018-02-04T07:06:13.736Z,86.80
2018-02-04T07:08:41.160Z,86.80
2018-02-04T07:11:09.365Z,86.90
2018-02-04T07:13:37.128Z,86.90
2018-02-04T07:16:04.581Z,86.90
2018-02-04T07:18:32.044Z,86.80
2018-02-04T07:20:59.884Z,86.80
2018-02-04T07:23:27.346Z,86.90
2018-02-04T07:25:54.792Z,87.00
2018-02-04T07:28:23.224Z,87.20
2018-02-04T07:30:50.684Z,87.10
2018-02-04T07:33:18.108Z,87.20
2018-02-04T07:35:45.578Z,87.20
2018-02-04T07:38:13.004Z,87.20
2018-02-04T07:40:40.488Z,87.20
2018-02-04T07:43:08.251Z,87.10
2018-02-04T07:45:35.715Z,87.10
2018-02-04T07:48:03.135Z,87.00
2018-02-04T07:50:31.340Z,86.80
2018-02-04T07:52:58.762Z,86.80
2018-02-04T07:55:27.044Z,86.80
2018-02-04T07:57:55.248Z,86.70
2018-02-04T08:00:22.672Z,86.60
2018-02-04T08:02:50.893Z,86.50
2018-02-04T08:05:18.648Z,86.50
2018-02-04T08:07:46.072Z,86.50
2018-02-04T08:10:13.502Z,86.50
2018-02-04T08:12:41.237Z,86.60
2018-02-04T08:15:08.686Z,86.60
2018-02-04T08:17:36.104Z,86.70
2018-02-04T08:20:04.418Z,86.60
2018-02-04T08:22:31.839Z,86.60
2018-02-04T08:24:59.448Z,86.50
2018-02-04T08:27:27.123Z,86.60
2018-02-04T08:29:54.611Z,86.70
2018-02-04T08:32:22.828Z,86.70
2018-02-04T08:34:50.600Z,86.60
2018-02-04T08:37:18.040Z,86.60
2018-02-04T08:39:45.512Z,86.50
2018-02-04T08:42:13.079Z,86.50
2018-02-04T08:44:40.520Z,86.50
2018-02-04T08:47:07.943Z,86.40
2018-02-04T08:49:36.460Z,86.40
2018-02-04T08:52:03.884Z,86.50
2018-02-04T08:54:32.082Z,87.20
2018-02-04T08:56:59.565Z,86.50
2018-02-04T08:59:26.968Z,86.50
2018-02-04T09:01:55.179Z,86.70
2018-02-04T09:04:22.735Z,86.50
2018-02-04T09:06:50.169Z,86.60
2018-02-04T09:09:17.655Z,86.90
2018-02-04T09:11:45.103Z,87.00
2018-02-04T09:14:12.524Z,87.10
2018-02-04T09:16:40.738Z,87.20
2018-02-04T09:19:08.197Z,87.20
2018-02-04T09:21:35.656Z,87.20
2018-02-04T09:24:03.112Z,87.30
2018-02-04T09:26:30.549Z,87.40
2018-02-04T09:28:57.973Z,86.80
2018-02-04T09:31:25.492Z,86.50
2018-02-04T09:33:53.024Z,86.40
2018-02-04T09:36:20.443Z,86.10
2018-02-04T09:38:47.864Z,85.70
2018-02-04T09:41:15.715Z,85.40
2018-02-04T09:43:43.182Z,84.20
2018-02-04T09:46:10.643Z,82.90
2018-02-04T09:48:38.092Z,82.20
2018-02-04T09:51:05.592Z,81.50
2018-02-04T09:53:33.016Z,80.90
2018-02-04T09:56:00.454Z,80.40
2018-02-04T09:58:27.928Z,79.80
2018-02-04T10:00:55.361Z,79.60
2018-02-04T10:03:22.844Z,79.40
2018-02-04T10:05:50.319Z,79.10
2018-02-04T10:08:17.725Z,79.00
2018-02-04T10:10:45.520Z,79.00
2018-02-04T10:13:12.976Z,78.30
2018-02-04T10:15:40.428Z,78.10
2018-02-04T10:18:08.176Z,77.30
2018-02-04T10:20:35.652Z,76.50
2018-02-04T10:23:03.083Z,76.00
2018-02-04T10:25:30.771Z,75.20
2018-02-04T10:27:58.198Z,75.00
2018-02-04T10:30:26.386Z,74.80
2018-02-04T10:32:53.867Z,74.80
2018-02-04T10:35:21.248Z,74.60
2018-02-04T10:37:48.692Z,74.30
2018-02-04T10:40:16.227Z,74.40
2018-02-04T10:42:43.852Z,74.20
2018-02-04T10:45:11.256Z,75.10
2018-02-04T10:47:38.937Z,75.20
2018-02-04T10:50:06.372Z,74.30
2018-02-04T10:52:33.788Z,74.10
2018-02-04T10:55:01.512Z,73.80
2018-02-04T10:57:28.969Z,73.80
2018-02-04T10:59:56.436Z,73.30
2018-02-04T11:02:23.880Z,72.90
2018-02-04T11:04:51.344Z,73.00
2018-02-04T11:07:18.768Z,72.90
2018-02-04T11:09:46.256Z,72.90
2018-02-04T11:12:13.697Z,73.00
2018-02-04T11:14:41.129Z,73.00
2018-02-04T11:17:09.572Z,72.70
2018-02-04T11:19:36.999Z,72.60
2018-02-04T11:22:04.421Z,73.00
2018-02-04T11:24:32.636Z,73.90
2018-02-04T11:27:00.061Z,73.20
2018-02-04T11:29:27.484Z,73.10
2018-02-04T11:31:54.964Z,72.60
2018-02-04T11:34:23.154Z,72.80
2018-02-04T11:36:50.604Z,72.60
2018-02-04T11:39:18.099Z,72.60
2018-02-04T11:41:45.561Z,72.70
2018-02-04T11:44:12.980Z,72.70
2018-02-04T11:46:40.692Z,72.20
2018-02-04T11:49:08.104Z,72.00
2018-02-04T11:51:35.544Z,72.00
2018-02-04T11:54:04.064Z,71.90
2018-02-04T11:56:31.493Z,71.90
2018-02-04T11:58:58.927Z,71.80
2018-02-04T12:01:26.691Z,71.70
2018-02-04T12:03:54.157Z,71.60
2018-02-04T12:06:22.348Z,71.40
2018-02-04T12:08:49.834Z,71.40
2018-02-04T12:11:17.293Z,71.10
2018-02-04T12:13:44.724Z,71.00
2018-02-04T12:16:12.164Z,70.80
2018-02-04T12:18:40.362Z,71.40
2018-02-04T12:21:07.780Z,71.40
2018-02-04T12:23:35.221Z,71.80
2018-02-04T12:26:02.756Z,72.10
2018-02-04T12:28:30.180Z,72.40
2018-02-04T12:30:57.868Z,72.70
2018-02-04T12:33:25.457Z,72.80
2018-02-04T12:35:52.884Z,72.90
2018-02-04T12:38:20.653Z,72.80
2018-02-04T12:40:48.112Z,72.60
2018-02-04T12:43:15.556Z,72.10
2018-02-04T12:45:42.985Z,72.00
2018-02-04T12:48:11.172Z,72.00
2018-02-04T12:50:38.596Z,71.90
2018-02-04T12:53:06.112Z,71.60
2018-02-04T12:55:33.547Z,71.40
2018-02-04T12:58:01.020Z,71.50
2018-02-04T13:00:28.647Z,70.40
2018-02-04T13:02:56.843Z,70.50
2018-02-04T13:05:24.261Z,70.50
2018-02-04T13:07:51.692Z,70.10
2018-02-04T13:10:19.144Z,69.70
2018-02-04T13:12:46.561Z,69.30
2018-02-04T13:15:14.266Z,69.10
2018-02-04T13:17:41.712Z,69.30
2018-02-04T13:20:09.141Z,69.40
2018-02-04T13:22:36.615Z,69.00
2018-02-04T13:25:04.076Z,69.00
2018-02-04T13:27:31.532Z,68.80
2018-02-04T13:29:58.993Z,69.00
2018-02-04T13:32:26.436Z,68.60
2018-02-04T13:34:54.743Z,68.40
2018-02-04T13:37:22.488Z,68.50
2018-02-04T13:39:49.912Z,68.60
2018-02-04T13:42:18.096Z,68.30
2018-02-04T13:44:45.782Z,68.20
2018-02-04T13:47:13.208Z,68.00
2018-02-04T13:49:41.396Z,68.10
2018-02-04T13:52:08.839Z,67.40
2018-02-04T13:54:37.033Z,67.40
2018-02-04T13:57:04.500Z,67.40
2018-02-04T13:59:31.960Z,67.70
2018-02-04T14:01:59.384Z,67.90
2018-02-04T14:04:26.873Z,68.00
2018-02-04T14:06:54.312Z,68.10
2018-02-04T14:09:21.732Z,68.20
2018-02-04T14:11:49.152Z,68.20
2018-02-04T14:14:16.605Z,68.30
2018-02-04T14:16:44.033Z,68.50
2018-02-04T14:19:11.447Z,68.60
2018-02-04T14:21:39.996Z,69.00
2018-02-04T14:24:07.504Z,69.10
2018-02-04T14:26:35.721Z,69.40
2018-02-04T14:29:03.293Z,69.40
2018-02-04T14:31:30.752Z,69.30
2018-02-04T14:33:58.177Z,69.30
2018-02-04T14:36:25.864Z,69.40
2018-02-04T14:38:53.294Z,69.40
2018-02-04T14:41:21.476Z,69.60
2018-02-04T14:43:49.176Z,69.60
2018-02-04T14:46:16.710Z,69.60
2018-02-04T14:48:44.972Z,69.80
2018-02-04T14:51:12.456Z,69.80
2018-02-04T14:53:39.912Z,69.70
2018-02-04T14:56:07.389Z,69.80
2018-02-04T14:58:34.832Z,69.80
2018-02-04T15:01:02.260Z,69.90
2018-02-04T15:03:29.739Z,70.10
2018-02-04T15:05:57.168Z,70.30
2018-02-04T15:08:24.647Z,70.40
2018-02-04T15:10:52.111Z,70.50
2018-02-04T15:13:19.548Z,70.30
2018-02-04T15:15:47.064Z,70.40
2018-02-04T15:18:14.504Z,70.60
2018-02-04T15:20:41.940Z,70.80
2018-02-04T15:23:09.364Z,70.80
2018-02-04T15:25:37.557Z,71.00
2018-02-04T15:28:05.028Z,70.90
2018-02-04T15:30:32.668Z,71.20
2018-02-04T15:33:00.142Z,71.40
2018-02-04T15:35:27.604Z,71.60
2018-02-04T15:37:55.066Z,71.80
2018-02-04T15:40:22.484Z,72.10
2018-02-04T15:42:50.080Z,72.30
2018-02-04T15:45:17.508Z,72.50
2018-02-04T15:47:44.990Z,72.70
2018-02-04T15:50:12.763Z,72.80
2018-02-04T15:52:40.424Z,72.90
2018-02-04T15:55:07.847Z,73.00
2018-02-04T15:57:35.335Z,73.20
2018-02-04T16:00:02.762Z,73.40
2018-02-04T16:02:30.179Z,73.60
2018-02-04T16:04:57.611Z,73.60
2018-02-04T16:07:25.068Z,73.80
2018-02-04T16:09:52.492Z,74.00
2018-02-04T16:12:20.180Z,74.20
2018-02-04T16:14:47.612Z,74.30
2018-02-04T16:17:15.044Z,74.60
2018-02-04T16:19:42.652Z,74.80
2018-02-04T16:22:10.113Z,74.90
2018-02-04T16:24:37.577Z,75.10
2018-02-04T16:27:05.019Z,75.90
2018-02-04T16:29:32.482Z,75.90
2018-02-04T16:31:59.916Z,75.90
2018-02-04T16:34:27.359Z,76.00
2018-02-04T16:36:55.568Z,76.30
2018-02-04T16:39:23.024Z,76.30
2018-02-04T16:41:50.488Z,76.50
2018-02-04T16:44:17.934Z,76.50
2018-02-04T16:46:45.344Z,76.70
2018-02-04T16:49:13.548Z,77.30
2018-02-04T16:51:40.984Z,77.30
2018-02-04T16:54:09.215Z,77.80
2018-02-04T16:56:36.671Z,77.80
2018-02-04T16:59:04.120Z,78.20
2018-02-04T17:01:31.553Z,78.50
2018-02-04T17:03:59.037Z,78.70
2018-02-04T17:06:26.470Z,79.00
2018-02-04T17:08:53.966Z,79.30
2018-02-04T17:11:21.430Z,79.50
2018-02-04T17:13:48.859Z,79.70
2018-02-04T17:16:16.350Z,80.10
2018-02-04T17:18:43.803Z,80.40
2018-02-04T17:21:11.230Z,80.90
2018-02-04T17:23:38.737Z,81.20
2018-02-04T17:26:06.137Z,81.40
2018-02-04T17:28:33.604Z,81.80
2018-02-04T17:31:01.045Z,82.10
2018-02-04T17:33:28.481Z,82.30
2018-02-04T17:35:56.696Z,82.70
2018-02-04T17:38:24.132Z,82.70
2018-02-04T17:40:51.812Z,83.00
2018-02-04T17:43:19.243Z,83.20
2018-02-04T17:45:46.728Z,83.40
2018-02-04T17:48:14.537Z,83.60
2018-02-04T17:50:41.968Z,83.60
2018-02-04T17:53:09.400Z,83.70
2018-02-04T17:55:37.078Z,84.00
2018-02-04T17:58:04.500Z,84.10
2018-02-04T18:00:31.923Z,84.20
2018-02-04T18:02:59.360Z,84.40
2018-02-04T18:05:26.803Z,84.50
2018-02-04T18:07:54.270Z,84.60
2018-02-04T18:10:21.704Z,84.70
2018-02-04T18:12:49.136Z,84.80
2018-02-04T18:15:16.564Z,85.00
2018-02-04T18:17:44.294Z,85.10
2018-02-04T18:20:11.733Z,85.00
2018-02-04T18:22:39.148Z,85.20
2018-02-04T18:25:07.584Z,85.20
2018-02-04T18:27:35.144Z,85.20
2018-02-04T18:30:02.600Z,85.20
2018-02-04T18:32:30.356Z,85.20
2018-02-04T18:34:57.788Z,85.30
2018-02-04T18:37:25.289Z,85.30
2018-02-04T18:39:52.837Z,85.40
2018-02-04T18:42:20.264Z,85.30
2018-02-04T18:44:47.703Z,85.30
2018-02-04T18:47:15.954Z,85.20
2018-02-04T18:49:43.373Z,85.20
2018-02-04T18:52:10.808Z,85.10
2018-02-04T18:54:38.600Z,84.80
2018-02-04T18:57:06.052Z,84.70
2018-02-04T18:59:33.484Z,84.50
2018-02-04T19:02:01.176Z,84.50
2018-02-04T19:04:28.632Z,84.40
2018-02-04T19:06:56.071Z,84.40
2018-02-04T19:09:23.870Z,84.30
2018-02-04T19:11:51.303Z,84.20
2018-02-04T19:14:18.742Z,84.20
2018-02-04T19:16:46.242Z,84.10
2018-02-04T19:19:13.684Z,84.10
2018-02-04T19:21:41.172Z,84.00
2018-02-04T19:24:08.643Z,83.90
2018-02-04T19:26:36.079Z,84.50
2018-02-04T19:29:03.495Z,83.80
2018-02-04T19:31:31.280Z,83.80
2018-02-04T19:33:58.736Z,83.80
2018-02-04T19:36:26.192Z,83.80
2018-02-04T19:38:53.657Z,83.80
2018-02-04T19:41:21.108Z,83.80
2018-02-04T19:43:48.662Z,83.80
2018-02-04T19:46:16.334Z,83.80
2018-02-04T19:48:43.799Z,83.70
2018-02-04T19:51:11.237Z,83.80
2018-02-04T19:53:38.677Z,83.70
2018-02-04T19:56:06.152Z,83.80
2018-02-04T19:58:33.592Z,83.80
2018-02-04T20:01:01.036Z,83.80
2018-02-04T20:03:28.464Z,83.80
2018-02-04T20:05:56.672Z,84.00
2018-02-04T20:08:24.160Z,83.90
2018-02-04T20:10:51.628Z,83.90
2018-02-04T20:13:19.075Z,83.90
2018-02-04T20:15:46.517Z,84.00
2018-02-04T20:18:13.951Z,84.00
2018-02-04T20:20:44.782Z,84.00
2018-02-04T20:23:12.796Z,84.10
2018-02-04T20:25:40.240Z,84.10
2018-02-04T20:28:07.663Z,84.30
2018-02-04T20:30:36.199Z,84.50
2018-02-04T20:33:15.724Z,84.50
2018-02-04T20:35:43.491Z,84.60
2018-02-04T20:38:10.979Z,84.70
2018-02-04T20:40:38.397Z,84.80
2018-02-04T20:43:06.176Z,85.00
2018-02-04T20:45:33.624Z,85.10
2018-02-04T20:48:01.056Z,85.40
2018-02-04T20:50:28.724Z,85.60
2018-02-04T20:52:56.184Z,85.70
2018-02-04T20:55:24.377Z,86.00
2018-02-04T20:57:52.070Z,85.90
2018-02-04T21:00:19.518Z,86.00
2018-02-04T21:02:46.987Z,86.20
2018-02-04T21:05:14.740Z,86.90
2018-02-04T21:07:42.170Z,86.40
2018-02-04T21:10:09.600Z,86.30
2018-02-04T21:12:38.112Z,86.40
2018-02-04T21:15:05.550Z,86.50
2018-02-04T21:17:32.972Z,86.50
2018-02-04T21:20:01.194Z,86.50
2018-02-04T21:22:28.619Z,86.50
2018-02-04T21:24:56.868Z,86.50
2018-02-04T21:27:24.415Z,86.50
2018-02-04T21:29:51.950Z,86.50
2018-02-04T21:32:19.402Z,86.50
2018-02-04T21:34:47.068Z,86.40
2018-02-04T21:37:14.500Z,86.40
2018-02-04T21:39:41.932Z,86.40
2018-02-04T21:42:09.660Z,86.40
2018-02-04T21:44:37.111Z,86.30
2018-02-04T21:47:04.569Z,86.40
2018-02-04T21:49:32.024Z,86.20
2018-02-04T21:51:59.448Z,86.30
2018-02-04T21:54:26.939Z,86.20
2018-02-04T21:56:54.728Z,86.20
2018-02-04T21:59:22.157Z,86.20
2018-02-04T22:01:49.592Z,86.00
2018-02-04T22:04:17.277Z,86.10
2018-02-04T22:06:44.733Z,86.10
2018-02-04T22:09:12.190Z,86.10
2018-02-04T22:11:39.638Z,86.30
2018-02-04T22:14:07.102Z,86.10
2018-02-04T22:16:34.537Z,86.20
2018-02-04T22:19:02.228Z,86.30
2018-02-04T22:21:29.668Z,86.30
2018-02-04T22:23:57.101Z,86.40
2018-02-04T22:26:24.799Z,86.40
2018-02-04T22:28:52.300Z,86.40
2018-02-04T22:31:19.825Z,86.50
2018-02-04T22:33:47.267Z,86.50
2018-02-04T22:36:14.731Z,86.50
2018-02-04T22:38:42.159Z,86.50
2018-02-04T22:41:09.604Z,86.50
2018-02-04T22:43:37.820Z,86.50
2018-02-04T22:46:05.252Z,86.50
2018-02-04T22:48:33.040Z,86.60
2018-02-04T22:51:00.504Z,86.50
2018-02-04T22:53:27.932Z,86.50
2018-02-04T22:55:55.740Z,86.50
2018-02-04T22:58:23.168Z,86.50
2018-02-04T23:00:50.606Z,86.40
2018-02-04T23:03:18.045Z,86.40
2018-02-04T23:05:46.274Z,86.30
2018-02-04T23:08:13.709Z,86.30
2018-02-04T23:10:41.484Z,86.30
2018-02-04T23:13:08.959Z,86.30
2018-02-04T23:15:36.397Z,86.30
2018-02-04T23:18:03.872Z,86.20
2018-02-04T23:20:31.352Z,86.20
2018-02-04T23:22:58.773Z,86.10
2018-02-04T23:25:26.537Z,86.00
2018-02-04T23:27:53.974Z,86.00
2018-02-04T23:30:21.391Z,85.90
2018-02-04T23:32:49.110Z,85.70
2018-02-04T23:35:16.542Z,85.70
2018-02-04T23:37:44.030Z,85.80
2018-02-04T23:40:11.712Z,85.70
2018-02-04T23:42:39.276Z,85.80
2018-02-04T23:45:06.808Z,85.80
2018-02-04T23:47:34.612Z,85.70
2018-02-04T23:50:02.156Z,85.70
2018-02-04T23:52:29.588Z,85.80
2018-02-04T23:54:57.356Z,85.80
2018-02-04T23:57:24.812Z,85.90
2018-02-04T23:59:52.243Z,85.90
